sensor_id;sensor_type;location;lat;lon;timestamp;temperature;humidity
16040;DHT22;8124;48.634;8.120;2022-07-22T00:01:10;24.10;99.90
16040;DHT22;8124;48.634;8.120;2022-07-22T00:06:13;23.90;99.90
16040;DHT22;8124;48.634;8.120;2022-07-22T00:11:16;23.90;99.90
16040;DHT22;8124;48.634;8.120;2022-07-22T00:16:20;23.60;99.90
16040;DHT22;8124;48.634;8.120;2022-07-22T00:21:23;23.70;99.90
16040;DHT22;8124;48.634;8.120;2022-07-22T00:26:26;23.60;99.90
16040;DHT22;8124;48.634;8.120;2022-07-22T00:31:31;23.70;99.90
16040;DHT22;8124;48.634;8.120;2022-07-22T00:36:34;23.40;99.90
16040;DHT22;8124;48.634;8.120;2022-07-22T00:41:37;23.50;99.90
16040;DHT22;8124;48.634;8.120;2022-07-22T00:46:41;23.50;99.90
16040;DHT22;8124;48.634;8.120;2022-07-22T00:51:45;23.40;99.90
16040;DHT22;8124;48.634;8.120;2022-07-22T00:56:48;23.40;99.90
16040;DHT22;8124;48.634;8.120;2022-07-22T01:01:53;23.30;99.90
16040;DHT22;8124;48.634;8.120;2022-07-22T01:06:58;23.10;99.90
16040;DHT22;8124;48.634;8.120;2022-07-22T01:12:02;22.30;99.90
16040;DHT22;8124;48.634;8.120;2022-07-22T01:17:07;22.20;99.90
16040;DHT22;8124;48.634;8.120;2022-07-22T01:22:11;22.40;99.90
16040;DHT22;8124;48.634;8.120;2022-07-22T01:27:15;22.40;99.90
16040;DHT22;8124;48.634;8.120;2022-07-22T01:32:18;22.60;99.90
16040;DHT22;8124;48.634;8.120;2022-07-22T01:37:23;22.50;99.90
16040;DHT22;8124;48.634;8.120;2022-07-22T01:42:26;22.30;99.90
16040;DHT22;8124;48.634;8.120;2022-07-22T01:47:29;22.20;99.90
16040;DHT22;8124;48.634;8.120;2022-07-22T01:52:33;22.30;99.90
16040;DHT22;8124;48.634;8.120;2022-07-22T01:57:37;22.40;99.90
16040;DHT22;8124;48.634;8.120;2022-07-22T02:02:50;22.50;99.90
16040;DHT22;8124;48.634;8.120;2022-07-22T02:07:59;22.10;99.90
16040;DHT22;8124;48.634;8.120;2022-07-22T02:13:05;22.00;99.90
16040;DHT22;8124;48.634;8.120;2022-07-22T02:18:13;22.00;99.90
16040;DHT22;8124;48.634;8.120;2022-07-22T02:23:19;22.00;99.90
16040;DHT22;8124;48.634;8.120;2022-07-22T02:28:22;21.90;99.90
16040;DHT22;8124;48.634;8.120;2022-07-22T02:33:25;21.80;99.90
16040;DHT22;8124;48.634;8.120;2022-07-22T02:38:30;21.70;99.90
16040;DHT22;8124;48.634;8.120;2022-07-22T02:43:33;21.90;99.90
16040;DHT22;8124;48.634;8.120;2022-07-22T02:48:37;22.00;99.90
16040;DHT22;8124;48.634;8.120;2022-07-22T02:53:44;21.80;99.90
16040;DHT22;8124;48.634;8.120;2022-07-22T02:58:47;21.90;99.90
16040;DHT22;8124;48.634;8.120;2022-07-22T03:03:54;21.80;99.90
16040;DHT22;8124;48.634;8.120;2022-07-22T03:09:01;21.60;99.90
16040;DHT22;8124;48.634;8.120;2022-07-22T03:14:05;21.40;99.90
16040;DHT22;8124;48.634;8.120;2022-07-22T03:19:08;21.50;99.90
16040;DHT22;8124;48.634;8.120;2022-07-22T03:24:12;21.30;99.90
16040;DHT22;8124;48.634;8.120;2022-07-22T03:29:16;21.30;99.90
16040;DHT22;8124;48.634;8.120;2022-07-22T03:34:19;21.30;99.90
16040;DHT22;8124;48.634;8.120;2022-07-22T03:39:30;21.10;99.90
16040;DHT22;8124;48.634;8.120;2022-07-22T03:44:34;21.10;99.90
16040;DHT22;8124;48.634;8.120;2022-07-22T03:49:38;21.30;99.90
16040;DHT22;8124;48.634;8.120;2022-07-22T03:54:45;21.10;99.90
16040;DHT22;8124;48.634;8.120;2022-07-22T03:59:48;21.00;99.90
16040;DHT22;8124;48.634;8.120;2022-07-22T04:04:51;21.30;99.90
16040;DHT22;8124;48.634;8.120;2022-07-22T04:09:55;21.30;99.90
16040;DHT22;8124;48.634;8.120;2022-07-22T04:15:10;21.10;99.90
16040;DHT22;8124;48.634;8.120;2022-07-22T04:20:13;21.20;99.90
16040;DHT22;8124;48.634;8.120;2022-07-22T04:25:46;21.50;99.90
16040;DHT22;8124;48.634;8.120;2022-07-22T04:30:50;21.70;99.90
16040;DHT22;8124;48.634;8.120;2022-07-22T04:35:53;21.80;99.90
16040;DHT22;8124;48.634;8.120;2022-07-22T04:40:58;21.80;99.90
16040;DHT22;8124;48.634;8.120;2022-07-22T04:46:01;21.80;99.90
16040;DHT22;8124;48.634;8.120;2022-07-22T04:51:08;21.90;99.90
16040;DHT22;8124;48.634;8.120;2022-07-22T04:56:13;22.00;99.90
16040;DHT22;8124;48.634;8.120;2022-07-22T05:01:18;22.00;99.90
16040;DHT22;8124;48.634;8.120;2022-07-22T05:06:24;22.00;99.90
16040;DHT22;8124;48.634;8.120;2022-07-22T05:11:30;22.20;99.90
16040;DHT22;8124;48.634;8.120;2022-07-22T05:16:35;22.30;99.90
16040;DHT22;8124;48.634;8.120;2022-07-22T05:21:39;22.20;99.90
16040;DHT22;8124;48.634;8.120;2022-07-22T05:26:44;22.10;99.90
16040;DHT22;8124;48.634;8.120;2022-07-22T05:31:50;22.20;99.90
16040;DHT22;8124;48.634;8.120;2022-07-22T05:36:53;22.30;99.90
16040;DHT22;8124;48.634;8.120;2022-07-22T05:41:58;22.30;99.90
16040;DHT22;8124;48.634;8.120;2022-07-22T05:47:01;22.30;99.90
16040;DHT22;8124;48.634;8.120;2022-07-22T05:52:04;22.50;99.90
16040;DHT22;8124;48.634;8.120;2022-07-22T05:57:09;22.80;99.90
16040;DHT22;8124;48.634;8.120;2022-07-22T06:02:13;23.00;99.90
16040;DHT22;8124;48.634;8.120;2022-07-22T06:07:20;23.10;99.90
16040;DHT22;8124;48.634;8.120;2022-07-22T06:12:30;23.00;99.90
16040;DHT22;8124;48.634;8.120;2022-07-22T06:17:33;23.20;99.90
16040;DHT22;8124;48.634;8.120;2022-07-22T06:22:39;23.50;99.90
16040;DHT22;8124;48.634;8.120;2022-07-22T06:27:43;23.70;99.90
16040;DHT22;8124;48.634;8.120;2022-07-22T06:32:46;23.80;99.90
16040;DHT22;8124;48.634;8.120;2022-07-22T06:37:57;23.80;99.90
16040;DHT22;8124;48.634;8.120;2022-07-22T06:43:19;23.90;99.90
16040;DHT22;8124;48.634;8.120;2022-07-22T06:48:56;23.90;99.90
16040;DHT22;8124;48.634;8.120;2022-07-22T06:54:01;24.10;99.90
16040;DHT22;8124;48.634;8.120;2022-07-22T06:59:06;24.40;99.90
16040;DHT22;8124;48.634;8.120;2022-07-22T07:04:10;24.60;99.90
16040;DHT22;8124;48.634;8.120;2022-07-22T07:09:13;24.70;99.90
16040;DHT22;8124;48.634;8.120;2022-07-22T07:14:24;24.30;99.90
16040;DHT22;8124;48.634;8.120;2022-07-22T07:19:27;24.40;99.90
16040;DHT22;8124;48.634;8.120;2022-07-22T07:24:31;24.50;99.90
16040;DHT22;8124;48.634;8.120;2022-07-22T07:29:36;24.80;99.90
16040;DHT22;8124;48.634;8.120;2022-07-22T07:34:39;25.10;99.90
16040;DHT22;8124;48.634;8.120;2022-07-22T07:39:42;25.10;99.90
16040;DHT22;8124;48.634;8.120;2022-07-22T07:44:47;25.10;99.90
16040;DHT22;8124;48.634;8.120;2022-07-22T07:49:50;25.30;99.90
16040;DHT22;8124;48.634;8.120;2022-07-22T07:54:53;25.40;99.90
16040;DHT22;8124;48.634;8.120;2022-07-22T08:00:19;25.40;99.90
16040;DHT22;8124;48.634;8.120;2022-07-22T08:05:23;25.40;99.90
16040;DHT22;8124;48.634;8.120;2022-07-22T08:10:27;25.50;99.90
16040;DHT22;8124;48.634;8.120;2022-07-22T08:16:05;25.50;99.90
16040;DHT22;8124;48.634;8.120;2022-07-22T08:21:10;25.80;99.90
16040;DHT22;8124;48.634;8.120;2022-07-22T08:26:28;25.80;99.90
16040;DHT22;8124;48.634;8.120;2022-07-22T08:31:35;25.70;99.90
16040;DHT22;8124;48.634;8.120;2022-07-22T08:36:43;25.80;99.90
16040;DHT22;8124;48.634;8.120;2022-07-22T08:41:46;26.10;99.90
16040;DHT22;8124;48.634;8.120;2022-07-22T08:46:51;26.00;99.90
16040;DHT22;8124;48.634;8.120;2022-07-22T08:51:54;25.90;99.90
16040;DHT22;8124;48.634;8.120;2022-07-22T08:57:02;26.10;99.90
16040;DHT22;8124;48.634;8.120;2022-07-22T09:02:08;26.20;99.90
16040;DHT22;8124;48.634;8.120;2022-07-22T09:07:23;26.40;99.90
16040;DHT22;8124;48.634;8.120;2022-07-22T09:12:27;26.30;99.90
16040;DHT22;8124;48.634;8.120;2022-07-22T09:17:44;26.60;99.90
16040;DHT22;8124;48.634;8.120;2022-07-22T09:23:11;26.40;99.90
16040;DHT22;8124;48.634;8.120;2022-07-22T09:28:18;26.40;99.90
16040;DHT22;8124;48.634;8.120;2022-07-22T09:33:43;26.60;99.90
16040;DHT22;8124;48.634;8.120;2022-07-22T09:38:54;26.60;99.90
16040;DHT22;8124;48.634;8.120;2022-07-22T09:44:22;26.90;99.90
16040;DHT22;8124;48.634;8.120;2022-07-22T09:49:33;26.90;99.90
16040;DHT22;8124;48.634;8.120;2022-07-22T09:54:54;26.90;99.90
16040;DHT22;8124;48.634;8.120;2022-07-22T09:59:58;26.90;99.90
16040;DHT22;8124;48.634;8.120;2022-07-22T10:05:23;27.10;99.90
16040;DHT22;8124;48.634;8.120;2022-07-22T10:10:29;27.20;99.90
16040;DHT22;8124;48.634;8.120;2022-07-22T10:15:34;27.50;99.90
16040;DHT22;8124;48.634;8.120;2022-07-22T10:20:39;27.70;99.90
16040;DHT22;8124;48.634;8.120;2022-07-22T10:25:50;27.80;99.90
16040;DHT22;8124;48.634;8.120;2022-07-22T10:31:16;27.70;99.90
16040;DHT22;8124;48.634;8.120;2022-07-22T10:36:30;27.90;99.90
16040;DHT22;8124;48.634;8.120;2022-07-22T10:41:35;28.30;99.90
16040;DHT22;8124;48.634;8.120;2022-07-22T10:46:50;28.30;99.90
16040;DHT22;8124;48.634;8.120;2022-07-22T10:52:10;28.40;99.90
16040;DHT22;8124;48.634;8.120;2022-07-22T10:57:29;28.70;99.90
16040;DHT22;8124;48.634;8.120;2022-07-22T11:02:40;28.80;99.90
16040;DHT22;8124;48.634;8.120;2022-07-22T11:07:49;28.70;99.90
16040;DHT22;8124;48.634;8.120;2022-07-22T11:12:52;28.90;99.90
16040;DHT22;8124;48.634;8.120;2022-07-22T11:17:57;29.10;99.90
16040;DHT22;8124;48.634;8.120;2022-07-22T11:23:01;29.00;99.90
16040;DHT22;8124;48.634;8.120;2022-07-22T11:28:04;28.80;99.90
16040;DHT22;8124;48.634;8.120;2022-07-22T11:33:10;29.00;99.90
16040;DHT22;8124;48.634;8.120;2022-07-22T11:38:14;29.30;99.90
16040;DHT22;8124;48.634;8.120;2022-07-22T11:43:17;28.90;99.90
16040;DHT22;8124;48.634;8.120;2022-07-22T11:48:21;29.10;99.90
16040;DHT22;8124;48.634;8.120;2022-07-22T11:53:24;29.10;99.90
16040;DHT22;8124;48.634;8.120;2022-07-22T11:58:40;29.50;99.90
16040;DHT22;8124;48.634;8.120;2022-07-22T12:03:47;29.70;99.90
16040;DHT22;8124;48.634;8.120;2022-07-22T12:08:53;29.60;99.90
16040;DHT22;8124;48.634;8.120;2022-07-22T12:14:04;29.40;99.90
16040;DHT22;8124;48.634;8.120;2022-07-22T12:19:17;29.70;99.90
16040;DHT22;8124;48.634;8.120;2022-07-22T12:24:29;29.80;99.90
16040;DHT22;8124;48.634;8.120;2022-07-22T12:29:42;29.80;99.90
16040;DHT22;8124;48.634;8.120;2022-07-22T12:34:55;29.80;99.90
16040;DHT22;8124;48.634;8.120;2022-07-22T12:39:59;29.60;99.90
16040;DHT22;8124;48.634;8.120;2022-07-22T12:45:05;30.00;99.90
16040;DHT22;8124;48.634;8.120;2022-07-22T12:50:22;30.20;99.90
16040;DHT22;8124;48.634;8.120;2022-07-22T12:55:26;30.50;99.90
16040;DHT22;8124;48.634;8.120;2022-07-22T13:00:31;30.70;99.90
16040;DHT22;8124;48.634;8.120;2022-07-22T13:05:36;30.60;99.90
16040;DHT22;8124;48.634;8.120;2022-07-22T13:10:39;30.70;99.90
16040;DHT22;8124;48.634;8.120;2022-07-22T13:15:42;30.80;99.90
16040;DHT22;8124;48.634;8.120;2022-07-22T13:20:47;30.60;99.90
16040;DHT22;8124;48.634;8.120;2022-07-22T13:25:50;30.60;99.90
16040;DHT22;8124;48.634;8.120;2022-07-22T13:30:57;30.80;99.90
16040;DHT22;8124;48.634;8.120;2022-07-22T13:36:02;31.00;99.90
16040;DHT22;8124;48.634;8.120;2022-07-22T13:41:05;31.20;99.90
16040;DHT22;8124;48.634;8.120;2022-07-22T13:46:18;31.10;99.90
16040;DHT22;8124;48.634;8.120;2022-07-22T13:51:22;31.10;99.90
16040;DHT22;8124;48.634;8.120;2022-07-22T13:56:25;31.10;99.90
16040;DHT22;8124;48.634;8.120;2022-07-22T14:01:28;31.30;99.90
16040;DHT22;8124;48.634;8.120;2022-07-22T14:06:35;31.30;99.90
16040;DHT22;8124;48.634;8.120;2022-07-22T14:11:38;31.60;99.90
16040;DHT22;8124;48.634;8.120;2022-07-22T14:16:42;31.50;99.90
16040;DHT22;8124;48.634;8.120;2022-07-22T14:22:03;31.60;99.90
16040;DHT22;8124;48.634;8.120;2022-07-22T14:27:06;31.60;99.60
16040;DHT22;8124;48.634;8.120;2022-07-22T14:32:09;31.70;99.30
16040;DHT22;8124;48.634;8.120;2022-07-22T14:37:13;31.80;99.20
16040;DHT22;8124;48.634;8.120;2022-07-22T14:42:16;31.80;98.70
16040;DHT22;8124;48.634;8.120;2022-07-22T14:47:19;31.70;98.20
16040;DHT22;8124;48.634;8.120;2022-07-22T14:52:23;32.00;98.30
16040;DHT22;8124;48.634;8.120;2022-07-22T14:57:26;32.00;97.80
16040;DHT22;8124;48.634;8.120;2022-07-22T15:02:29;32.00;97.20
16040;DHT22;8124;48.634;8.120;2022-07-22T15:07:34;32.10;96.70
16040;DHT22;8124;48.634;8.120;2022-07-22T15:12:37;32.50;96.50
16040;DHT22;8124;48.634;8.120;2022-07-22T15:17:50;32.70;96.00
16040;DHT22;8124;48.634;8.120;2022-07-22T15:22:54;32.60;95.50
16040;DHT22;8124;48.634;8.120;2022-07-22T15:27:57;32.50;94.90
16040;DHT22;8124;48.634;8.120;2022-07-22T15:33:21;32.60;94.60
16040;DHT22;8124;48.634;8.120;2022-07-22T15:38:38;32.50;94.10
16040;DHT22;8124;48.634;8.120;2022-07-22T15:43:41;32.40;93.60
16040;DHT22;8124;48.634;8.120;2022-07-22T15:48:44;32.50;93.60
16040;DHT22;8124;48.634;8.120;2022-07-22T15:53:48;32.60;93.90
16040;DHT22;8124;48.634;8.120;2022-07-22T15:58:51;32.60;93.50
16040;DHT22;8124;48.634;8.120;2022-07-22T16:04:29;32.80;93.30
16040;DHT22;8124;48.634;8.120;2022-07-22T16:09:34;32.60;92.90
16040;DHT22;8124;48.634;8.120;2022-07-22T16:14:37;32.80;92.90
16040;DHT22;8124;48.634;8.120;2022-07-22T16:19:40;32.80;92.50
16040;DHT22;8124;48.634;8.120;2022-07-22T16:24:44;32.60;92.20
16040;DHT22;8124;48.634;8.120;2022-07-22T16:29:47;32.80;92.10
16040;DHT22;8124;48.634;8.120;2022-07-22T16:34:50;32.70;91.80
16040;DHT22;8124;48.634;8.120;2022-07-22T16:39:54;32.70;91.80
16040;DHT22;8124;48.634;8.120;2022-07-22T16:44:57;32.60;91.70
16040;DHT22;8124;48.634;8.120;2022-07-22T16:50:00;32.30;91.20
16040;DHT22;8124;48.634;8.120;2022-07-22T16:55:05;32.30;91.40
16040;DHT22;8124;48.634;8.120;2022-07-22T17:00:09;32.20;91.60
16040;DHT22;8124;48.634;8.120;2022-07-22T17:05:12;32.20;91.90
16040;DHT22;8124;48.634;8.120;2022-07-22T17:10:17;32.00;92.10
16040;DHT22;8124;48.634;8.120;2022-07-22T17:15:20;32.00;92.60
16040;DHT22;8124;48.634;8.120;2022-07-22T17:20:23;32.10;93.30
16040;DHT22;8124;48.634;8.120;2022-07-22T17:25:28;32.20;93.80
16040;DHT22;8124;48.634;8.120;2022-07-22T17:30:31;32.20;94.20
16040;DHT22;8124;48.634;8.120;2022-07-22T17:35:34;32.00;94.10
16040;DHT22;8124;48.634;8.120;2022-07-22T17:40:41;31.90;94.30
16040;DHT22;8124;48.634;8.120;2022-07-22T17:45:44;31.80;94.70
16040;DHT22;8124;48.634;8.120;2022-07-22T17:50:47;31.60;94.90
16040;DHT22;8124;48.634;8.120;2022-07-22T17:55:51;31.60;95.40
16040;DHT22;8124;48.634;8.120;2022-07-22T18:01:14;31.40;95.80
16040;DHT22;8124;48.634;8.120;2022-07-22T18:06:17;31.50;96.40
16040;DHT22;8124;48.634;8.120;2022-07-22T18:11:22;31.30;96.50
16040;DHT22;8124;48.634;8.120;2022-07-22T18:16:24;31.60;97.50
16040;DHT22;8124;48.634;8.120;2022-07-22T18:21:28;31.80;98.00
16040;DHT22;8124;48.634;8.120;2022-07-22T18:26:32;31.70;98.10
16040;DHT22;8124;48.634;8.120;2022-07-22T18:31:37;31.40;97.80
16040;DHT22;8124;48.634;8.120;2022-07-22T18:36:40;30.80;97.20
16040;DHT22;8124;48.634;8.120;2022-07-22T18:41:44;30.80;97.50
16040;DHT22;8124;48.634;8.120;2022-07-22T18:46:49;30.70;97.50
16040;DHT22;8124;48.634;8.120;2022-07-22T18:51:53;30.30;96.90
16040;DHT22;8124;48.634;8.120;2022-07-22T18:56:57;30.50;97.30
16040;DHT22;8124;48.634;8.120;2022-07-22T19:02:00;30.80;98.30
16040;DHT22;8124;48.634;8.120;2022-07-22T19:07:03;30.70;98.70
16040;DHT22;8124;48.634;8.120;2022-07-22T19:12:09;30.90;99.90
16040;DHT22;8124;48.634;8.120;2022-07-22T19:17:12;30.90;99.90
16040;DHT22;8124;48.634;8.120;2022-07-22T19:22:15;30.80;99.90
16040;DHT22;8124;48.634;8.120;2022-07-22T19:27:21;30.70;99.90
16040;DHT22;8124;48.634;8.120;2022-07-22T19:32:24;30.60;99.90
16040;DHT22;8124;48.634;8.120;2022-07-22T19:37:26;30.60;99.90
16040;DHT22;8124;48.634;8.120;2022-07-22T19:42:31;30.40;99.90
16040;DHT22;8124;48.634;8.120;2022-07-22T19:47:34;30.30;99.90
16040;DHT22;8124;48.634;8.120;2022-07-22T19:52:37;30.20;99.90
16040;DHT22;8124;48.634;8.120;2022-07-22T19:57:42;30.30;99.90
16040;DHT22;8124;48.634;8.120;2022-07-22T20:02:45;30.30;99.90
16040;DHT22;8124;48.634;8.120;2022-07-22T20:07:48;30.20;99.90
16040;DHT22;8124;48.634;8.120;2022-07-22T20:12:53;30.20;99.90
16040;DHT22;8124;48.634;8.120;2022-07-22T20:17:57;30.20;99.90
16040;DHT22;8124;48.634;8.120;2022-07-22T20:23:00;30.10;99.90
16040;DHT22;8124;48.634;8.120;2022-07-22T20:28:04;30.00;99.90
16040;DHT22;8124;48.634;8.120;2022-07-22T20:33:07;29.30;99.90
16040;DHT22;8124;48.634;8.120;2022-07-22T20:38:10;29.60;99.90
16040;DHT22;8124;48.634;8.120;2022-07-22T20:43:15;29.50;99.90
16040;DHT22;8124;48.634;8.120;2022-07-22T20:48:18;29.30;99.90
16040;DHT22;8124;48.634;8.120;2022-07-22T20:53:21;29.30;99.90
16040;DHT22;8124;48.634;8.120;2022-07-22T20:58:28;29.40;99.90
16040;DHT22;8124;48.634;8.120;2022-07-22T21:03:32;29.40;99.90
16040;DHT22;8124;48.634;8.120;2022-07-22T21:08:35;29.50;99.90
16040;DHT22;8124;48.634;8.120;2022-07-22T21:13:40;29.50;99.90
16040;DHT22;8124;48.634;8.120;2022-07-22T21:18:43;29.40;99.40
16040;DHT22;8124;48.634;8.120;2022-07-22T21:23:46;29.30;99.10
16040;DHT22;8124;48.634;8.120;2022-07-22T21:28:50;29.30;98.60
16040;DHT22;8124;48.634;8.120;2022-07-22T21:33:54;29.30;97.90
16040;DHT22;8124;48.634;8.120;2022-07-22T21:38:56;29.20;97.00
16040;DHT22;8124;48.634;8.120;2022-07-22T21:44:01;29.40;96.00
16040;DHT22;8124;48.634;8.120;2022-07-22T21:49:04;29.30;94.80
16040;DHT22;8124;48.634;8.120;2022-07-22T21:54:08;29.20;94.00
16040;DHT22;8124;48.634;8.120;2022-07-22T21:59:12;29.10;93.80
16040;DHT22;8124;48.634;8.120;2022-07-22T22:04:15;29.00;93.80
16040;DHT22;8124;48.634;8.120;2022-07-22T22:09:19;29.00;93.80
16040;DHT22;8124;48.634;8.120;2022-07-22T22:14:24;29.20;94.00
16040;DHT22;8124;48.634;8.120;2022-07-22T22:19:27;29.10;93.90
16040;DHT22;8124;48.634;8.120;2022-07-22T22:24:30;28.90;93.70
16040;DHT22;8124;48.634;8.120;2022-07-22T22:29:34;28.90;93.70
16040;DHT22;8124;48.634;8.120;2022-07-22T22:34:37;29.00;93.80
16040;DHT22;8124;48.634;8.120;2022-07-22T22:39:40;28.90;93.70
16040;DHT22;8124;48.634;8.120;2022-07-22T22:44:44;28.70;93.60
16040;DHT22;8124;48.634;8.120;2022-07-22T22:49:47;28.80;93.70
16040;DHT22;8124;48.634;8.120;2022-07-22T22:54:50;28.60;93.50
16040;DHT22;8124;48.634;8.120;2022-07-22T22:59:55;28.60;93.60
16040;DHT22;8124;48.634;8.120;2022-07-22T23:04:58;28.50;93.10
16040;DHT22;8124;48.634;8.120;2022-07-22T23:10:01;28.50;93.00
16040;DHT22;8124;48.634;8.120;2022-07-22T23:15:06;28.60;93.00
16040;DHT22;8124;48.634;8.120;2022-07-22T23:20:10;28.50;92.80
16040;DHT22;8124;48.634;8.120;2022-07-22T23:25:14;28.50;92.70
16040;DHT22;8124;48.634;8.120;2022-07-22T23:30:18;28.40;92.60
16040;DHT22;8124;48.634;8.120;2022-07-22T23:35:21;28.30;92.40
16040;DHT22;8124;48.634;8.120;2022-07-22T23:40:24;28.30;92.80
16040;DHT22;8124;48.634;8.120;2022-07-22T23:45:29;28.10;93.10
16040;DHT22;8124;48.634;8.120;2022-07-22T23:50:32;28.00;93.30
16040;DHT22;8124;48.634;8.120;2022-07-22T23:55:35;27.90;93.40
